sensor_id;sensor_type;location;lat;lon;timestamp;temperature;humidity
38973;DHT22;25333;50.762;4.470;2024-03-29T00:00:43;9.60;98.30
38973;DHT22;25333;50.762;4.470;2024-03-29T00:03:12;9.60;98.40
38973;DHT22;25333;50.762;4.470;2024-03-29T00:05:38;9.60;98.30
38973;DHT22;25333;50.762;4.470;2024-03-29T00:08:04;9.50;98.60
38973;DHT22;25333;50.762;4.470;2024-03-29T00:10:30;9.50;98.50
38973;DHT22;25333;50.762;4.470;2024-03-29T00:12:56;9.50;98.50
38973;DHT22;25333;50.762;4.470;2024-03-29T00:15:21;9.60;98.60
38973;DHT22;25333;50.762;4.470;2024-03-29T00:17:47;9.60;98.50
38973;DHT22;25333;50.762;4.470;2024-03-29T00:20:12;9.60;98.50
38973;DHT22;25333;50.762;4.470;2024-03-29T00:22:38;9.60;98.70
38973;DHT22;25333;50.762;4.470;2024-03-29T00:25:04;9.50;98.80
38973;DHT22;25333;50.762;4.470;2024-03-29T00:27:30;9.60;98.60
38973;DHT22;25333;50.762;4.470;2024-03-29T00:29:56;9.70;98.70
38973;DHT22;25333;50.762;4.470;2024-03-29T00:32:22;9.70;98.40
38973;DHT22;25333;50.762;4.470;2024-03-29T00:34:50;9.70;98.60
38973;DHT22;25333;50.762;4.470;2024-03-29T00:37:16;9.70;98.40
38973;DHT22;25333;50.762;4.470;2024-03-29T00:39:42;9.80;98.40
38973;DHT22;25333;50.762;4.470;2024-03-29T00:42:08;9.80;98.30
38973;DHT22;25333;50.762;4.470;2024-03-29T00:44:41;9.70;98.40
38973;DHT22;25333;50.762;4.470;2024-03-29T00:47:07;9.80;98.30
38973;DHT22;25333;50.762;4.470;2024-03-29T00:49:33;9.90;98.00
38973;DHT22;25333;50.762;4.470;2024-03-29T00:51:59;9.90;97.90
38973;DHT22;25333;50.762;4.470;2024-03-29T00:54:25;10.00;97.80
38973;DHT22;25333;50.762;4.470;2024-03-29T00:56:50;10.00;97.90
38973;DHT22;25333;50.762;4.470;2024-03-29T00:59:16;10.00;97.80
38973;DHT22;25333;50.762;4.470;2024-03-29T01:01:42;10.10;97.80
38973;DHT22;25333;50.762;4.470;2024-03-29T01:04:09;10.10;97.80
38973;DHT22;25333;50.762;4.470;2024-03-29T01:06:34;10.10;97.70
38973;DHT22;25333;50.762;4.470;2024-03-29T01:09:01;10.10;97.80
38973;DHT22;25333;50.762;4.470;2024-03-29T01:11:26;10.10;97.80
38973;DHT22;25333;50.762;4.470;2024-03-29T01:13:53;10.10;97.70
38973;DHT22;25333;50.762;4.470;2024-03-29T01:16:18;10.10;97.70
38973;DHT22;25333;50.762;4.470;2024-03-29T01:18:44;10.10;97.70
38973;DHT22;25333;50.762;4.470;2024-03-29T01:21:15;10.20;97.90
38973;DHT22;25333;50.762;4.470;2024-03-29T01:23:40;10.20;98.00
38973;DHT22;25333;50.762;4.470;2024-03-29T01:26:06;10.20;98.10
38973;DHT22;25333;50.762;4.470;2024-03-29T01:28:33;10.20;98.10
38973;DHT22;25333;50.762;4.470;2024-03-29T01:30:59;10.10;98.50
38973;DHT22;25333;50.762;4.470;2024-03-29T01:33:25;10.00;98.50
38973;DHT22;25333;50.762;4.470;2024-03-29T01:35:51;9.90;98.80
38973;DHT22;25333;50.762;4.470;2024-03-29T01:38:16;9.80;98.90
38973;DHT22;25333;50.762;4.470;2024-03-29T01:40:42;9.80;99.30
38973;DHT22;25333;50.762;4.470;2024-03-29T01:43:08;9.70;99.60
38973;DHT22;25333;50.762;4.470;2024-03-29T01:45:41;9.60;99.90
38973;DHT22;25333;50.762;4.470;2024-03-29T01:48:07;9.60;99.90
38973;DHT22;25333;50.762;4.470;2024-03-29T01:50:34;9.40;99.90
38973;DHT22;25333;50.762;4.470;2024-03-29T01:53:01;9.40;99.90
38973;DHT22;25333;50.762;4.470;2024-03-29T01:55:27;9.30;99.90
38973;DHT22;25333;50.762;4.470;2024-03-29T01:57:55;9.20;99.90
38973;DHT22;25333;50.762;4.470;2024-03-29T02:00:22;9.00;99.90
38973;DHT22;25333;50.762;4.470;2024-03-29T02:02:48;9.00;99.90
38973;DHT22;25333;50.762;4.470;2024-03-29T02:05:14;9.00;99.90
38973;DHT22;25333;50.762;4.470;2024-03-29T02:07:40;8.90;99.90
38973;DHT22;25333;50.762;4.470;2024-03-29T02:10:06;8.90;99.90
38973;DHT22;25333;50.762;4.470;2024-03-29T02:12:35;8.80;99.90
38973;DHT22;25333;50.762;4.470;2024-03-29T02:15:01;8.80;99.90
38973;DHT22;25333;50.762;4.470;2024-03-29T02:17:28;8.70;99.90
38973;DHT22;25333;50.762;4.470;2024-03-29T02:19:53;8.60;99.90
38973;DHT22;25333;50.762;4.470;2024-03-29T02:22:20;8.60;99.90
38973;DHT22;25333;50.762;4.470;2024-03-29T02:24:47;8.60;99.90
38973;DHT22;25333;50.762;4.470;2024-03-29T02:27:13;8.60;99.90
38973;DHT22;25333;50.762;4.470;2024-03-29T02:29:39;8.60;99.90
38973;DHT22;25333;50.762;4.470;2024-03-29T02:32:05;8.50;99.90
38973;DHT22;25333;50.762;4.470;2024-03-29T02:34:31;8.60;99.90
38973;DHT22;25333;50.762;4.470;2024-03-29T02:36:56;8.50;99.90
38973;DHT22;25333;50.762;4.470;2024-03-29T02:39:22;8.50;99.90
38973;DHT22;25333;50.762;4.470;2024-03-29T02:41:48;8.50;99.90
38973;DHT22;25333;50.762;4.470;2024-03-29T02:44:14;8.50;99.90
38973;DHT22;25333;50.762;4.470;2024-03-29T02:46:41;8.50;99.90
38973;DHT22;25333;50.762;4.470;2024-03-29T02:49:07;8.50;99.90
38973;DHT22;25333;50.762;4.470;2024-03-29T02:51:33;8.50;99.90
38973;DHT22;25333;50.762;4.470;2024-03-29T02:53:59;8.50;99.90
38973;DHT22;25333;50.762;4.470;2024-03-29T02:56:24;8.50;99.90
38973;DHT22;25333;50.762;4.470;2024-03-29T02:58:51;8.50;99.90
38973;DHT22;25333;50.762;4.470;2024-03-29T03:01:16;8.40;99.90
38973;DHT22;25333;50.762;4.470;2024-03-29T03:03:42;8.40;99.90
38973;DHT22;25333;50.762;4.470;2024-03-29T03:06:08;8.40;99.90
38973;DHT22;25333;50.762;4.470;2024-03-29T03:08:33;8.30;99.90
38973;DHT22;25333;50.762;4.470;2024-03-29T03:11:18;8.30;99.90
38973;DHT22;25333;50.762;4.470;2024-03-29T03:13:43;8.30;99.90
38973;DHT22;25333;50.762;4.470;2024-03-29T03:16:09;8.20;99.90
38973;DHT22;25333;50.762;4.470;2024-03-29T03:18:35;8.10;99.90
38973;DHT22;25333;50.762;4.470;2024-03-29T03:21:01;8.10;99.90
38973;DHT22;25333;50.762;4.470;2024-03-29T03:23:26;8.10;99.90
38973;DHT22;25333;50.762;4.470;2024-03-29T03:25:57;8.10;99.90
38973;DHT22;25333;50.762;4.470;2024-03-29T03:28:23;8.10;99.90
38973;DHT22;25333;50.762;4.470;2024-03-29T03:30:49;8.00;99.90
38973;DHT22;25333;50.762;4.470;2024-03-29T03:33:15;8.00;99.90
38973;DHT22;25333;50.762;4.470;2024-03-29T03:35:42;8.00;99.90
38973;DHT22;25333;50.762;4.470;2024-03-29T03:38:08;8.00;99.90
38973;DHT22;25333;50.762;4.470;2024-03-29T03:40:37;8.00;99.90
38973;DHT22;25333;50.762;4.470;2024-03-29T03:43:04;7.90;99.90
38973;DHT22;25333;50.762;4.470;2024-03-29T03:45:40;7.90;99.90
38973;DHT22;25333;50.762;4.470;2024-03-29T03:48:07;7.90;99.90
38973;DHT22;25333;50.762;4.470;2024-03-29T03:50:33;8.00;99.90
38973;DHT22;25333;50.762;4.470;2024-03-29T03:53:00;7.90;99.90
38973;DHT22;25333;50.762;4.470;2024-03-29T03:55:26;8.00;99.90
38973;DHT22;25333;50.762;4.470;2024-03-29T03:57:52;8.00;99.90
38973;DHT22;25333;50.762;4.470;2024-03-29T04:00:19;8.10;99.90
38973;DHT22;25333;50.762;4.470;2024-03-29T04:02:49;8.10;99.90
38973;DHT22;25333;50.762;4.470;2024-03-29T04:05:19;8.10;99.90
38973;DHT22;25333;50.762;4.470;2024-03-29T04:07:45;8.00;99.90
38973;DHT22;25333;50.762;4.470;2024-03-29T04:10:11;8.00;99.90
38973;DHT22;25333;50.762;4.470;2024-03-29T04:12:37;8.10;99.90
38973;DHT22;25333;50.762;4.470;2024-03-29T04:15:03;8.10;99.90
38973;DHT22;25333;50.762;4.470;2024-03-29T04:17:30;8.10;99.90
38973;DHT22;25333;50.762;4.470;2024-03-29T04:19:57;8.10;99.90
38973;DHT22;25333;50.762;4.470;2024-03-29T04:22:29;8.20;99.90
38973;DHT22;25333;50.762;4.470;2024-03-29T04:24:55;8.10;99.90
38973;DHT22;25333;50.762;4.470;2024-03-29T04:27:20;8.10;99.90
38973;DHT22;25333;50.762;4.470;2024-03-29T04:29:46;8.10;99.90
38973;DHT22;25333;50.762;4.470;2024-03-29T04:32:12;8.00;99.90
38973;DHT22;25333;50.762;4.470;2024-03-29T04:34:38;8.00;99.90
38973;DHT22;25333;50.762;4.470;2024-03-29T04:37:04;8.00;99.90
38973;DHT22;25333;50.762;4.470;2024-03-29T04:39:29;8.00;99.90
38973;DHT22;25333;50.762;4.470;2024-03-29T04:41:55;8.00;99.90
38973;DHT22;25333;50.762;4.470;2024-03-29T04:44:25;8.00;99.90
38973;DHT22;25333;50.762;4.470;2024-03-29T04:46:51;8.00;99.90
38973;DHT22;25333;50.762;4.470;2024-03-29T04:49:22;8.00;99.90
38973;DHT22;25333;50.762;4.470;2024-03-29T04:51:59;7.90;99.90
38973;DHT22;25333;50.762;4.470;2024-03-29T04:54:25;7.90;99.90
38973;DHT22;25333;50.762;4.470;2024-03-29T04:56:52;7.90;99.90
38973;DHT22;25333;50.762;4.470;2024-03-29T04:59:17;7.90;99.90
38973;DHT22;25333;50.762;4.470;2024-03-29T05:01:49;7.90;99.90
38973;DHT22;25333;50.762;4.470;2024-03-29T05:04:28;7.90;99.90
38973;DHT22;25333;50.762;4.470;2024-03-29T05:06:55;8.00;99.90
38973;DHT22;25333;50.762;4.470;2024-03-29T05:09:21;8.00;99.90
38973;DHT22;25333;50.762;4.470;2024-03-29T05:11:47;8.00;99.90
38973;DHT22;25333;50.762;4.470;2024-03-29T05:14:15;8.00;99.90
38973;DHT22;25333;50.762;4.470;2024-03-29T05:16:46;8.00;99.90
38973;DHT22;25333;50.762;4.470;2024-03-29T05:19:13;8.00;99.90
38973;DHT22;25333;50.762;4.470;2024-03-29T05:21:39;8.00;99.90
38973;DHT22;25333;50.762;4.470;2024-03-29T05:24:05;8.00;99.90
38973;DHT22;25333;50.762;4.470;2024-03-29T05:26:31;8.00;99.90
38973;DHT22;25333;50.762;4.470;2024-03-29T05:28:57;8.00;99.90
38973;DHT22;25333;50.762;4.470;2024-03-29T05:31:24;8.00;99.90
38973;DHT22;25333;50.762;4.470;2024-03-29T05:33:50;8.10;99.90
38973;DHT22;25333;50.762;4.470;2024-03-29T05:36:16;8.00;99.90
38973;DHT22;25333;50.762;4.470;2024-03-29T05:38:42;7.90;99.90
38973;DHT22;25333;50.762;4.470;2024-03-29T05:41:08;7.80;99.90
38973;DHT22;25333;50.762;4.470;2024-03-29T05:43:33;7.90;99.90
38973;DHT22;25333;50.762;4.470;2024-03-29T05:45:59;7.80;99.90
38973;DHT22;25333;50.762;4.470;2024-03-29T05:48:28;7.80;99.90
38973;DHT22;25333;50.762;4.470;2024-03-29T05:50:54;7.80;99.90
38973;DHT22;25333;50.762;4.470;2024-03-29T05:53:19;7.90;99.90
38973;DHT22;25333;50.762;4.470;2024-03-29T05:55:45;7.90;99.90
38973;DHT22;25333;50.762;4.470;2024-03-29T05:58:11;8.00;99.90
38973;DHT22;25333;50.762;4.470;2024-03-29T06:00:41;8.00;99.90
38973;DHT22;25333;50.762;4.470;2024-03-29T06:03:07;8.00;99.90
38973;DHT22;25333;50.762;4.470;2024-03-29T06:05:33;8.10;99.90
38973;DHT22;25333;50.762;4.470;2024-03-29T06:07:58;8.10;99.90
38973;DHT22;25333;50.762;4.470;2024-03-29T06:10:24;8.20;99.90
38973;DHT22;25333;50.762;4.470;2024-03-29T06:12:50;8.20;99.90
38973;DHT22;25333;50.762;4.470;2024-03-29T06:15:15;8.20;99.90
38973;DHT22;25333;50.762;4.470;2024-03-29T06:18:00;8.20;99.90
38973;DHT22;25333;50.762;4.470;2024-03-29T06:20:25;8.20;99.90
38973;DHT22;25333;50.762;4.470;2024-03-29T06:22:51;8.30;99.90
38973;DHT22;25333;50.762;4.470;2024-03-29T06:25:17;8.30;99.90
38973;DHT22;25333;50.762;4.470;2024-03-29T06:27:43;8.30;99.90
38973;DHT22;25333;50.762;4.470;2024-03-29T06:30:15;8.30;99.90
38973;DHT22;25333;50.762;4.470;2024-03-29T06:32:42;8.30;99.90
38973;DHT22;25333;50.762;4.470;2024-03-29T06:35:08;8.30;99.90
38973;DHT22;25333;50.762;4.470;2024-03-29T06:37:34;8.40;99.90
38973;DHT22;25333;50.762;4.470;2024-03-29T06:40:00;8.40;99.90
38973;DHT22;25333;50.762;4.470;2024-03-29T06:42:25;8.50;99.90
38973;DHT22;25333;50.762;4.470;2024-03-29T06:44:51;8.50;99.90
38973;DHT22;25333;50.762;4.470;2024-03-29T06:47:18;8.50;99.90
38973;DHT22;25333;50.762;4.470;2024-03-29T06:49:44;8.50;99.90
38973;DHT22;25333;50.762;4.470;2024-03-29T06:52:18;8.50;99.90
38973;DHT22;25333;50.762;4.470;2024-03-29T06:54:47;8.60;99.90
38973;DHT22;25333;50.762;4.470;2024-03-29T06:57:13;8.60;99.90
38973;DHT22;25333;50.762;4.470;2024-03-29T06:59:45;8.60;99.90
38973;DHT22;25333;50.762;4.470;2024-03-29T07:02:21;8.60;99.90
38973;DHT22;25333;50.762;4.470;2024-03-29T07:04:47;8.70;99.90
38973;DHT22;25333;50.762;4.470;2024-03-29T07:07:12;8.70;99.90
38973;DHT22;25333;50.762;4.470;2024-03-29T07:09:38;8.80;99.90
38973;DHT22;25333;50.762;4.470;2024-03-29T07:12:04;8.80;99.90
38973;DHT22;25333;50.762;4.470;2024-03-29T07:14:30;8.80;99.90
38973;DHT22;25333;50.762;4.470;2024-03-29T07:16:58;8.80;99.90
38973;DHT22;25333;50.762;4.470;2024-03-29T07:19:23;8.80;99.90
38973;DHT22;25333;50.762;4.470;2024-03-29T07:21:49;8.90;99.90
38973;DHT22;25333;50.762;4.470;2024-03-29T07:24:27;8.90;99.90
38973;DHT22;25333;50.762;4.470;2024-03-29T07:26:53;8.80;99.90
38973;DHT22;25333;50.762;4.470;2024-03-29T07:29:18;8.80;99.90
38973;DHT22;25333;50.762;4.470;2024-03-29T07:31:44;8.80;99.90
38973;DHT22;25333;50.762;4.470;2024-03-29T07:34:10;8.80;99.90
38973;DHT22;25333;50.762;4.470;2024-03-29T07:36:36;8.80;99.90
38973;DHT22;25333;50.762;4.470;2024-03-29T07:39:02;8.80;99.90
38973;DHT22;25333;50.762;4.470;2024-03-29T07:41:29;8.80;99.90
38973;DHT22;25333;50.762;4.470;2024-03-29T07:43:57;8.80;99.90
38973;DHT22;25333;50.762;4.470;2024-03-29T07:46:31;8.80;99.90
38973;DHT22;25333;50.762;4.470;2024-03-29T07:48:57;8.80;99.90
38973;DHT22;25333;50.762;4.470;2024-03-29T07:51:23;8.90;99.90
38973;DHT22;25333;50.762;4.470;2024-03-29T07:53:49;8.90;99.90
38973;DHT22;25333;50.762;4.470;2024-03-29T07:56:15;9.00;99.90
38973;DHT22;25333;50.762;4.470;2024-03-29T07:58:41;9.00;99.90
38973;DHT22;25333;50.762;4.470;2024-03-29T08:01:06;9.10;99.90
38973;DHT22;25333;50.762;4.470;2024-03-29T08:03:32;9.20;99.90
38973;DHT22;25333;50.762;4.470;2024-03-29T08:06:03;9.20;99.90
38973;DHT22;25333;50.762;4.470;2024-03-29T08:08:32;9.20;99.90
38973;DHT22;25333;50.762;4.470;2024-03-29T08:10:59;9.30;99.90
38973;DHT22;25333;50.762;4.470;2024-03-29T08:13:26;9.20;99.90
38973;DHT22;25333;50.762;4.470;2024-03-29T08:15:59;9.20;99.90
38973;DHT22;25333;50.762;4.470;2024-03-29T08:18:26;9.20;99.90
38973;DHT22;25333;50.762;4.470;2024-03-29T08:20:52;9.30;99.90
38973;DHT22;25333;50.762;4.470;2024-03-29T08:23:19;9.30;99.90
38973;DHT22;25333;50.762;4.470;2024-03-29T08:25:45;9.40;99.90
38973;DHT22;25333;50.762;4.470;2024-03-29T08:28:10;9.50;99.90
38973;DHT22;25333;50.762;4.470;2024-03-29T08:30:36;9.50;99.90
38973;DHT22;25333;50.762;4.470;2024-03-29T08:33:03;9.60;99.90
38973;DHT22;25333;50.762;4.470;2024-03-29T08:35:29;9.60;99.90
38973;DHT22;25333;50.762;4.470;2024-03-29T08:37:55;9.70;99.90
38973;DHT22;25333;50.762;4.470;2024-03-29T08:40:21;9.70;99.90
38973;DHT22;25333;50.762;4.470;2024-03-29T08:42:47;9.80;99.90
38973;DHT22;25333;50.762;4.470;2024-03-29T08:45:13;9.80;99.90
38973;DHT22;25333;50.762;4.470;2024-03-29T08:47:39;9.90;99.90
38973;DHT22;25333;50.762;4.470;2024-03-29T08:50:05;10.00;99.90
38973;DHT22;25333;50.762;4.470;2024-03-29T08:52:31;10.10;99.90
38973;DHT22;25333;50.762;4.470;2024-03-29T08:54:56;10.20;99.90
38973;DHT22;25333;50.762;4.470;2024-03-29T08:57:22;10.30;99.90
38973;DHT22;25333;50.762;4.470;2024-03-29T08:59:48;10.40;99.90
38973;DHT22;25333;50.762;4.470;2024-03-29T09:02:13;10.40;99.90
38973;DHT22;25333;50.762;4.470;2024-03-29T09:04:39;10.40;99.90
38973;DHT22;25333;50.762;4.470;2024-03-29T09:07:05;10.40;99.90
38973;DHT22;25333;50.762;4.470;2024-03-29T09:09:34;10.60;99.90
38973;DHT22;25333;50.762;4.470;2024-03-29T09:12:00;10.60;99.90
38973;DHT22;25333;50.762;4.470;2024-03-29T09:14:27;10.80;99.90
38973;DHT22;25333;50.762;4.470;2024-03-29T09:16:52;10.80;99.90
38973;DHT22;25333;50.762;4.470;2024-03-29T09:19:20;10.90;99.90
38973;DHT22;25333;50.762;4.470;2024-03-29T09:21:46;11.00;99.90
38973;DHT22;25333;50.762;4.470;2024-03-29T09:24:12;11.00;99.90
38973;DHT22;25333;50.762;4.470;2024-03-29T09:26:38;11.20;99.90
38973;DHT22;25333;50.762;4.470;2024-03-29T09:29:05;11.10;99.90
38973;DHT22;25333;50.762;4.470;2024-03-29T09:31:31;11.20;99.90
38973;DHT22;25333;50.762;4.470;2024-03-29T09:33:57;11.20;99.90
38973;DHT22;25333;50.762;4.470;2024-03-29T09:36:23;11.30;99.90
38973;DHT22;25333;50.762;4.470;2024-03-29T09:38:49;11.50;99.90
38973;DHT22;25333;50.762;4.470;2024-03-29T09:41:19;11.60;99.90
38973;DHT22;25333;50.762;4.470;2024-03-29T09:43:46;11.70;99.90
38973;DHT22;25333;50.762;4.470;2024-03-29T09:46:13;11.90;99.90
38973;DHT22;25333;50.762;4.470;2024-03-29T09:48:44;11.90;99.90
38973;DHT22;25333;50.762;4.470;2024-03-29T09:51:12;11.90;99.90
38973;DHT22;25333;50.762;4.470;2024-03-29T09:53:41;12.00;99.90
38973;DHT22;25333;50.762;4.470;2024-03-29T09:56:08;12.10;99.90
38973;DHT22;25333;50.762;4.470;2024-03-29T09:58:37;12.10;99.90
38973;DHT22;25333;50.762;4.470;2024-03-29T10:01:04;12.00;99.90
38973;DHT22;25333;50.762;4.470;2024-03-29T10:03:32;11.90;99.90
38973;DHT22;25333;50.762;4.470;2024-03-29T10:06:00;11.90;99.90
38973;DHT22;25333;50.762;4.470;2024-03-29T10:08:27;11.90;99.90
38973;DHT22;25333;50.762;4.470;2024-03-29T10:10:59;11.90;99.90
38973;DHT22;25333;50.762;4.470;2024-03-29T10:13:25;12.10;99.90
38973;DHT22;25333;50.762;4.470;2024-03-29T10:15:52;12.40;99.90
38973;DHT22;25333;50.762;4.470;2024-03-29T10:18:21;12.50;99.90
38973;DHT22;25333;50.762;4.470;2024-03-29T10:20:47;12.60;99.90
38973;DHT22;25333;50.762;4.470;2024-03-29T10:23:23;12.90;99.90
38973;DHT22;25333;50.762;4.470;2024-03-29T10:25:50;13.10;99.90
38973;DHT22;25333;50.762;4.470;2024-03-29T10:28:17;13.00;99.90
38973;DHT22;25333;50.762;4.470;2024-03-29T10:30:43;12.80;99.90
38973;DHT22;25333;50.762;4.470;2024-03-29T10:33:09;12.70;99.90
38973;DHT22;25333;50.762;4.470;2024-03-29T10:35:35;12.60;99.90
38973;DHT22;25333;50.762;4.470;2024-03-29T10:38:03;12.70;99.90
38973;DHT22;25333;50.762;4.470;2024-03-29T10:40:30;12.90;99.90
38973;DHT22;25333;50.762;4.470;2024-03-29T10:42:56;13.00;99.90
38973;DHT22;25333;50.762;4.470;2024-03-29T10:45:23;13.10;99.90
38973;DHT22;25333;50.762;4.470;2024-03-29T10:47:49;13.20;99.90
38973;DHT22;25333;50.762;4.470;2024-03-29T10:50:19;13.10;99.90
38973;DHT22;25333;50.762;4.470;2024-03-29T10:52:45;12.90;99.90
38973;DHT22;25333;50.762;4.470;2024-03-29T10:55:14;12.80;99.90
38973;DHT22;25333;50.762;4.470;2024-03-29T10:57:42;12.70;99.90
38973;DHT22;25333;50.762;4.470;2024-03-29T11:00:13;12.70;99.90
38973;DHT22;25333;50.762;4.470;2024-03-29T11:03:13;12.60;99.90
38973;DHT22;25333;50.762;4.470;2024-03-29T11:05:48;12.60;99.90
38973;DHT22;25333;50.762;4.470;2024-03-29T11:08:22;12.60;99.90
38973;DHT22;25333;50.762;4.470;2024-03-29T11:10:51;12.60;99.90
38973;DHT22;25333;50.762;4.470;2024-03-29T11:15:47;12.80;99.90
38973;DHT22;25333;50.762;4.470;2024-03-29T11:18:15;13.10;99.90
38973;DHT22;25333;50.762;4.470;2024-03-29T11:20:48;13.40;99.90
38973;DHT22;25333;50.762;4.470;2024-03-29T11:23:18;13.80;99.90
38973;DHT22;25333;50.762;4.470;2024-03-29T11:25:49;14.00;99.90
38973;DHT22;25333;50.762;4.470;2024-03-29T11:28:23;14.00;99.90
38973;DHT22;25333;50.762;4.470;2024-03-29T11:30:50;13.90;99.90
38973;DHT22;25333;50.762;4.470;2024-03-29T11:33:29;13.90;99.90
38973;DHT22;25333;50.762;4.470;2024-03-29T11:35:59;14.10;99.90
38973;DHT22;25333;50.762;4.470;2024-03-29T11:38:35;14.10;99.90
38973;DHT22;25333;50.762;4.470;2024-03-29T11:41:06;14.20;99.90
38973;DHT22;25333;50.762;4.470;2024-03-29T11:43:35;14.10;99.90
38973;DHT22;25333;50.762;4.470;2024-03-29T11:46:05;14.10;99.90
38973;DHT22;25333;50.762;4.470;2024-03-29T11:48:31;14.50;99.90
38973;DHT22;25333;50.762;4.470;2024-03-29T11:50:58;14.60;99.90
38973;DHT22;25333;50.762;4.470;2024-03-29T11:53:24;14.80;99.90
38973;DHT22;25333;50.762;4.470;2024-03-29T11:55:50;14.90;99.90
38973;DHT22;25333;50.762;4.470;2024-03-29T11:58:23;15.10;99.90
38973;DHT22;25333;50.762;4.470;2024-03-29T12:00:50;15.00;99.90
38973;DHT22;25333;50.762;4.470;2024-03-29T12:03:20;15.10;99.90
38973;DHT22;25333;50.762;4.470;2024-03-29T12:05:48;15.10;99.90
38973;DHT22;25333;50.762;4.470;2024-03-29T12:08:14;15.20;99.90
38973;DHT22;25333;50.762;4.470;2024-03-29T12:10:40;15.30;99.90
38973;DHT22;25333;50.762;4.470;2024-03-29T12:13:07;15.30;99.60
38973;DHT22;25333;50.762;4.470;2024-03-29T12:15:33;15.20;99.50
38973;DHT22;25333;50.762;4.470;2024-03-29T12:18:04;15.00;99.80
38973;DHT22;25333;50.762;4.470;2024-03-29T12:20:35;14.90;99.90
38973;DHT22;25333;50.762;4.470;2024-03-29T12:23:04;14.80;99.90
38973;DHT22;25333;50.762;4.470;2024-03-29T12:25:30;14.70;99.90
38973;DHT22;25333;50.762;4.470;2024-03-29T12:27:58;14.70;99.70
38973;DHT22;25333;50.762;4.470;2024-03-29T12:30:24;14.70;99.60
38973;DHT22;25333;50.762;4.470;2024-03-29T12:35:42;14.80;99.90
38973;DHT22;25333;50.762;4.470;2024-03-29T12:38:14;14.90;99.20
38973;DHT22;25333;50.762;4.470;2024-03-29T12:40:41;14.80;99.50
38973;DHT22;25333;50.762;4.470;2024-03-29T12:43:09;14.60;99.50
38973;DHT22;25333;50.762;4.470;2024-03-29T12:45:35;14.60;99.90
38973;DHT22;25333;50.762;4.470;2024-03-29T12:48:11;14.50;99.20
38973;DHT22;25333;50.762;4.470;2024-03-29T12:50:40;14.70;99.90
38973;DHT22;25333;50.762;4.470;2024-03-29T12:53:07;14.90;98.40
38973;DHT22;25333;50.762;4.470;2024-03-29T12:55:33;15.00;98.70
38973;DHT22;25333;50.762;4.470;2024-03-29T12:58:02;15.00;98.80
38973;DHT22;25333;50.762;4.470;2024-03-29T13:00:30;14.80;99.30
38973;DHT22;25333;50.762;4.470;2024-03-29T13:02:56;14.80;99.90
38973;DHT22;25333;50.762;4.470;2024-03-29T13:05:22;14.90;99.10
38973;DHT22;25333;50.762;4.470;2024-03-29T13:07:49;15.10;98.50
38973;DHT22;25333;50.762;4.470;2024-03-29T13:10:15;15.10;98.50
38973;DHT22;25333;50.762;4.470;2024-03-29T13:12:45;15.00;98.50
38973;DHT22;25333;50.762;4.470;2024-03-29T13:15:20;14.90;99.20
38973;DHT22;25333;50.762;4.470;2024-03-29T13:17:47;15.00;98.90
38973;DHT22;25333;50.762;4.470;2024-03-29T13:20:15;15.00;98.50
38973;DHT22;25333;50.762;4.470;2024-03-29T13:22:46;14.90;98.40
38973;DHT22;25333;50.762;4.470;2024-03-29T13:25:14;14.80;99.20
38973;DHT22;25333;50.762;4.470;2024-03-29T13:27:40;14.70;99.10
38973;DHT22;25333;50.762;4.470;2024-03-29T13:30:08;14.80;99.90
38973;DHT22;25333;50.762;4.470;2024-03-29T13:32:43;14.90;99.00
38973;DHT22;25333;50.762;4.470;2024-03-29T13:35:10;14.90;98.00
38973;DHT22;25333;50.762;4.470;2024-03-29T13:37:41;14.80;98.00
38973;DHT22;25333;50.762;4.470;2024-03-29T13:40:18;14.70;98.00
38973;DHT22;25333;50.762;4.470;2024-03-29T13:42:44;14.60;97.90
38973;DHT22;25333;50.762;4.470;2024-03-29T13:45:11;14.50;98.30
38973;DHT22;25333;50.762;4.470;2024-03-29T13:47:38;14.50;98.20
38973;DHT22;25333;50.762;4.470;2024-03-29T13:50:05;14.50;98.70
38973;DHT22;25333;50.762;4.470;2024-03-29T13:52:31;14.50;98.90
38973;DHT22;25333;50.762;4.470;2024-03-29T13:54:58;14.60;99.20
38973;DHT22;25333;50.762;4.470;2024-03-29T13:57:24;14.60;98.40
38973;DHT22;25333;50.762;4.470;2024-03-29T13:59:50;14.60;99.20
38973;DHT22;25333;50.762;4.470;2024-03-29T14:02:17;14.60;98.90
38973;DHT22;25333;50.762;4.470;2024-03-29T14:04:44;14.50;98.70
38973;DHT22;25333;50.762;4.470;2024-03-29T14:07:11;14.50;99.10
38973;DHT22;25333;50.762;4.470;2024-03-29T14:09:38;14.50;99.10
38973;DHT22;25333;50.762;4.470;2024-03-29T14:12:04;14.50;99.30
38973;DHT22;25333;50.762;4.470;2024-03-29T14:14:30;14.50;99.40
38973;DHT22;25333;50.762;4.470;2024-03-29T14:16:56;14.50;99.10
38973;DHT22;25333;50.762;4.470;2024-03-29T14:19:22;14.50;98.80
38973;DHT22;25333;50.762;4.470;2024-03-29T14:21:48;14.50;98.80
38973;DHT22;25333;50.762;4.470;2024-03-29T14:24:14;14.40;99.20
38973;DHT22;25333;50.762;4.470;2024-03-29T14:26:42;14.30;99.40
38973;DHT22;25333;50.762;4.470;2024-03-29T14:29:08;14.30;99.80
38973;DHT22;25333;50.762;4.470;2024-03-29T14:31:33;14.40;99.20
38973;DHT22;25333;50.762;4.470;2024-03-29T14:33:59;14.40;99.50
38973;DHT22;25333;50.762;4.470;2024-03-29T14:36:25;14.30;99.80
38973;DHT22;25333;50.762;4.470;2024-03-29T14:38:51;14.40;99.70
38973;DHT22;25333;50.762;4.470;2024-03-29T14:41:18;14.30;99.30
38973;DHT22;25333;50.762;4.470;2024-03-29T14:43:44;14.30;99.10
38973;DHT22;25333;50.762;4.470;2024-03-29T14:46:12;14.30;99.20
38973;DHT22;25333;50.762;4.470;2024-03-29T14:48:37;14.40;99.10
38973;DHT22;25333;50.762;4.470;2024-03-29T14:51:03;14.40;99.40
38973;DHT22;25333;50.762;4.470;2024-03-29T14:53:29;14.30;99.60
38973;DHT22;25333;50.762;4.470;2024-03-29T14:55:55;14.30;99.90
38973;DHT22;25333;50.762;4.470;2024-03-29T14:58:21;14.40;99.60
38973;DHT22;25333;50.762;4.470;2024-03-29T15:00:46;14.40;99.80
38973;DHT22;25333;50.762;4.470;2024-03-29T15:03:13;14.50;99.10
38973;DHT22;25333;50.762;4.470;2024-03-29T15:05:39;14.60;98.80
38973;DHT22;25333;50.762;4.470;2024-03-29T15:08:05;14.50;99.00
38973;DHT22;25333;50.762;4.470;2024-03-29T15:10:31;14.50;98.60
38973;DHT22;25333;50.762;4.470;2024-03-29T15:12:57;14.30;99.20
38973;DHT22;25333;50.762;4.470;2024-03-29T15:15:23;14.30;99.30
38973;DHT22;25333;50.762;4.470;2024-03-29T15:17:49;14.30;98.90
38973;DHT22;25333;50.762;4.470;2024-03-29T15:20:15;14.40;98.80
38973;DHT22;25333;50.762;4.470;2024-03-29T15:22:41;14.40;98.80
38973;DHT22;25333;50.762;4.470;2024-03-29T15:25:10;14.40;98.60
38973;DHT22;25333;50.762;4.470;2024-03-29T15:27:36;14.30;99.40
38973;DHT22;25333;50.762;4.470;2024-03-29T15:30:21;14.30;99.30
38973;DHT22;25333;50.762;4.470;2024-03-29T15:32:46;14.40;99.20
38973;DHT22;25333;50.762;4.470;2024-03-29T15:35:12;14.30;99.20
38973;DHT22;25333;50.762;4.470;2024-03-29T15:37:38;14.30;99.10
38973;DHT22;25333;50.762;4.470;2024-03-29T15:40:04;14.40;99.00
38973;DHT22;25333;50.762;4.470;2024-03-29T15:42:29;14.40;98.90
38973;DHT22;25333;50.762;4.470;2024-03-29T15:44:55;14.40;98.70